Ana Sayfa
METAR-TAF:

METAR-TAF

Havaalanları :

San José del Cabo, Meksika

Enlem: 23-09N, Boylam: 109-42W, yükseklik: 109 m

Güncel hava durumu gözlemi

Rapor saat 14:41 UTC de 37 dakika önce yapıldı.
Rüzgar batı/kuzeybatıdan 3 kt
Sıcaklık 29°C
Nem 22%
Basınç 1013 hPa
Görüş mesafesi: 16.1 km
Açık gökyüzü

METAR: MMSD 221441Z 29003KT 10SM SKC 29/05 A2990 RMK SLP108 5//// 917

Saat: 09:18 (15:18 UTC)

Tahmin

Rapor saat 05:10 UTC de 10 saat ve 8 dakika önce yapıldı.
Ayın 22'si saat 06 UTC'den ayın 23'si saat 06 UTC'ye kadar geçerli Tahmin
Rüzgar batı/kuzeybatıdan 5 kt
Görüş mesafesi: 10 km
25000 ft yükseklikte parçalı bulutlu
Ayın 22'si saat 1700 UTC'den
Rüzgar güneydoğudan 12 kt
Görüş mesafesi: 10 km
Açık gökyüzü
Ayın 23'si saat 0200 UTC'den
Rüzgar batı/kuzeybatıdan 5 kt
Görüş mesafesi: 10 km
25000 ft yükseklikte parçalı bulutlu

TAF: MMSD 220510Z 2206/2306 30005KT P6SM SCT250 FM221700 13012KT P6SM SKC FM230200 30005KT P6SM SCT250

4.000'den fazla havaalanı için hava durumu gözlemleri ve tahminleri (METAR ve TAF raporları).

Kullanılabilir istasyonlar harita üzerinde sarı ve kırmızı noktalarla gösterilir.

İstasyonun adını görmek için fareyi noktanın üzerinde gezdirin.

Sonrasında hava gözlem ve tahminlerini görmek için tıklayın.

Haritayı değiştirmek için: yaklaştırmak için siyah artı işaretli yeşil düğmeye ve uzaklaştırmak için de eksi işaretli düğmeye hızla tıklayın; bitişik haritalar için yeşil okları kullanın.


METAR-TAF: